sensor_id;sensor_type;location;lat;lon;timestamp;P1;durP1;ratioP1;P2;durP2;ratioP2
12925;SDS011;6529;50.566;9.774;2023-10-19T00:02:07;10.60;;;8.87;;
12925;SDS011;6529;50.566;9.774;2023-10-19T00:04:33;11.60;;;8.50;;
12925;SDS011;6529;50.566;9.774;2023-10-19T00:07:02;11.67;;;8.70;;
12925;SDS011;6529;50.566;9.774;2023-10-19T00:09:31;12.07;;;8.80;;
12925;SDS011;6529;50.566;9.774;2023-10-19T00:12:02;9.90;;;8.20;;
12925;SDS011;6529;50.566;9.774;2023-10-19T00:14:28;10.50;;;8.17;;
12925;SDS011;6529;50.566;9.774;2023-10-19T00:16:54;9.20;;;7.87;;
12925;SDS011;6529;50.566;9.774;2023-10-19T00:19:25;10.33;;;8.00;;
12925;SDS011;6529;50.566;9.774;2023-10-19T00:21:53;8.43;;;7.10;;
12925;SDS011;6529;50.566;9.774;2023-10-19T00:24:27;7.63;;;6.43;;
12925;SDS011;6529;50.566;9.774;2023-10-19T00:26:52;7.83;;;6.17;;
12925;SDS011;6529;50.566;9.774;2023-10-19T00:29:20;9.53;;;6.63;;
12925;SDS011;6529;50.566;9.774;2023-10-19T00:31:55;9.77;;;7.80;;
12925;SDS011;6529;50.566;9.774;2023-10-19T00:34:25;7.47;;;6.20;;
12925;SDS011;6529;50.566;9.774;2023-10-19T00:36:53;7.77;;;5.93;;
12925;SDS011;6529;50.566;9.774;2023-10-19T00:39:21;9.93;;;7.57;;
12925;SDS011;6529;50.566;9.774;2023-10-19T00:41:47;10.83;;;7.77;;
12925;SDS011;6529;50.566;9.774;2023-10-19T00:44:14;11.23;;;7.53;;
12925;SDS011;6529;50.566;9.774;2023-10-19T00:46:53;10.20;;;8.07;;
12925;SDS011;6529;50.566;9.774;2023-10-19T00:49:29;10.03;;;7.67;;
12925;SDS011;6529;50.566;9.774;2023-10-19T00:51:56;8.90;;;7.37;;
12925;SDS011;6529;50.566;9.774;2023-10-19T00:54:37;9.03;;;7.67;;
12925;SDS011;6529;50.566;9.774;2023-10-19T00:57:04;10.63;;;7.93;;
12925;SDS011;6529;50.566;9.774;2023-10-19T00:59:35;10.20;;;8.47;;
12925;SDS011;6529;50.566;9.774;2023-10-19T01:02:08;10.70;;;8.27;;
12925;SDS011;6529;50.566;9.774;2023-10-19T01:04:54;9.63;;;8.37;;
12925;SDS011;6529;50.566;9.774;2023-10-19T01:07:28;10.60;;;7.97;;
12925;SDS011;6529;50.566;9.774;2023-10-19T01:09:58;10.03;;;7.87;;
12925;SDS011;6529;50.566;9.774;2023-10-19T01:12:30;9.70;;;7.53;;
12925;SDS011;6529;50.566;9.774;2023-10-19T01:17:48;9.37;;;7.33;;
12925;SDS011;6529;50.566;9.774;2023-10-19T01:20:18;10.27;;;8.07;;
12925;SDS011;6529;50.566;9.774;2023-10-19T01:22:52;11.63;;;7.67;;
12925;SDS011;6529;50.566;9.774;2023-10-19T01:28:16;8.03;;;7.03;;
12925;SDS011;6529;50.566;9.774;2023-10-19T01:30:45;7.40;;;6.60;;
12925;SDS011;6529;50.566;9.774;2023-10-19T01:33:11;7.40;;;6.37;;
12925;SDS011;6529;50.566;9.774;2023-10-19T01:35:46;12.73;;;6.33;;
12925;SDS011;6529;50.566;9.774;2023-10-19T01:38:31;7.60;;;6.37;;
12925;SDS011;6529;50.566;9.774;2023-10-19T01:41:00;9.10;;;7.00;;
12925;SDS011;6529;50.566;9.774;2023-10-19T01:43:30;7.43;;;6.63;;
12925;SDS011;6529;50.566;9.774;2023-10-19T01:46:00;8.20;;;6.93;;
12925;SDS011;6529;50.566;9.774;2023-10-19T01:48:30;9.97;;;7.23;;
12925;SDS011;6529;50.566;9.774;2023-10-19T01:51:01;9.47;;;7.30;;
12925;SDS011;6529;50.566;9.774;2023-10-19T01:53:30;8.17;;;6.37;;
12925;SDS011;6529;50.566;9.774;2023-10-19T01:56:00;7.57;;;6.47;;
12925;SDS011;6529;50.566;9.774;2023-10-19T01:58:25;8.87;;;6.90;;
12925;SDS011;6529;50.566;9.774;2023-10-19T02:00:52;7.47;;;6.33;;
12925;SDS011;6529;50.566;9.774;2023-10-19T02:03:20;6.67;;;5.97;;
12925;SDS011;6529;50.566;9.774;2023-10-19T02:05:56;8.67;;;6.30;;
12925;SDS011;6529;50.566;9.774;2023-10-19T02:08:34;7.07;;;5.63;;
12925;SDS011;6529;50.566;9.774;2023-10-19T02:11:03;7.90;;;6.30;;
12925;SDS011;6529;50.566;9.774;2023-10-19T02:13:43;6.83;;;5.83;;
12925;SDS011;6529;50.566;9.774;2023-10-19T02:16:11;6.77;;;6.03;;
12925;SDS011;6529;50.566;9.774;2023-10-19T02:18:44;7.17;;;5.50;;
12925;SDS011;6529;50.566;9.774;2023-10-19T02:21:10;5.20;;;4.30;;
12925;SDS011;6529;50.566;9.774;2023-10-19T02:23:39;5.13;;;4.17;;
12925;SDS011;6529;50.566;9.774;2023-10-19T02:26:07;5.43;;;4.20;;
12925;SDS011;6529;50.566;9.774;2023-10-19T02:28:33;4.63;;;4.13;;
12925;SDS011;6529;50.566;9.774;2023-10-19T02:31:03;5.10;;;4.60;;
12925;SDS011;6529;50.566;9.774;2023-10-19T02:33:39;4.67;;;4.17;;
12925;SDS011;6529;50.566;9.774;2023-10-19T02:36:05;3.87;;;3.40;;
12925;SDS011;6529;50.566;9.774;2023-10-19T02:38:37;3.90;;;3.50;;
12925;SDS011;6529;50.566;9.774;2023-10-19T02:41:08;3.50;;;3.20;;
12925;SDS011;6529;50.566;9.774;2023-10-19T02:43:35;4.40;;;3.20;;
12925;SDS011;6529;50.566;9.774;2023-10-19T02:46:01;3.63;;;2.80;;
12925;SDS011;6529;50.566;9.774;2023-10-19T02:48:28;3.70;;;3.23;;
12925;SDS011;6529;50.566;9.774;2023-10-19T02:50:54;3.23;;;2.93;;
12925;SDS011;6529;50.566;9.774;2023-10-19T02:53:19;3.33;;;2.93;;
12925;SDS011;6529;50.566;9.774;2023-10-19T02:55:45;3.57;;;3.27;;
12925;SDS011;6529;50.566;9.774;2023-10-19T02:58:11;3.30;;;3.00;;
12925;SDS011;6529;50.566;9.774;2023-10-19T03:00:37;3.40;;;3.10;;
12925;SDS011;6529;50.566;9.774;2023-10-19T03:03:03;3.50;;;3.20;;
12925;SDS011;6529;50.566;9.774;2023-10-19T03:05:31;3.83;;;3.20;;
12925;SDS011;6529;50.566;9.774;2023-10-19T03:07:59;4.17;;;3.40;;
12925;SDS011;6529;50.566;9.774;2023-10-19T03:10:30;3.70;;;3.30;;
12925;SDS011;6529;50.566;9.774;2023-10-19T03:13:06;3.73;;;3.40;;
12925;SDS011;6529;50.566;9.774;2023-10-19T03:15:33;4.17;;;3.77;;
12925;SDS011;6529;50.566;9.774;2023-10-19T03:17:58;4.20;;;3.60;;
12925;SDS011;6529;50.566;9.774;2023-10-19T03:20:26;4.37;;;3.97;;
12925;SDS011;6529;50.566;9.774;2023-10-19T03:22:53;4.33;;;3.80;;
12925;SDS011;6529;50.566;9.774;2023-10-19T03:25:23;4.43;;;4.03;;
12925;SDS011;6529;50.566;9.774;2023-10-19T03:28:07;4.57;;;4.03;;
12925;SDS011;6529;50.566;9.774;2023-10-19T03:30:41;4.30;;;3.90;;
12925;SDS011;6529;50.566;9.774;2023-10-19T03:33:07;4.20;;;3.80;;
12925;SDS011;6529;50.566;9.774;2023-10-19T03:35:35;4.17;;;3.77;;
12925;SDS011;6529;50.566;9.774;2023-10-19T03:38:02;5.17;;;3.57;;
12925;SDS011;6529;50.566;9.774;2023-10-19T03:40:33;4.33;;;3.87;;
12925;SDS011;6529;50.566;9.774;2023-10-19T03:43:03;4.07;;;3.60;;
12925;SDS011;6529;50.566;9.774;2023-10-19T03:45:41;4.43;;;3.90;;
12925;SDS011;6529;50.566;9.774;2023-10-19T03:48:12;3.90;;;3.50;;
12925;SDS011;6529;50.566;9.774;2023-10-19T03:50:38;5.20;;;3.50;;
12925;SDS011;6529;50.566;9.774;2023-10-19T03:53:03;4.23;;;3.83;;
12925;SDS011;6529;50.566;9.774;2023-10-19T03:55:32;3.90;;;3.50;;
12925;SDS011;6529;50.566;9.774;2023-10-19T03:58:03;4.43;;;3.63;;
12925;SDS011;6529;50.566;9.774;2023-10-19T04:00:29;4.00;;;3.60;;
12925;SDS011;6529;50.566;9.774;2023-10-19T04:02:58;4.07;;;3.67;;
12925;SDS011;6529;50.566;9.774;2023-10-19T04:05:24;4.00;;;3.60;;
12925;SDS011;6529;50.566;9.774;2023-10-19T04:07:51;4.27;;;3.80;;
12925;SDS011;6529;50.566;9.774;2023-10-19T04:10:20;4.50;;;4.10;;
12925;SDS011;6529;50.566;9.774;2023-10-19T04:12:55;5.23;;;4.23;;
12925;SDS011;6529;50.566;9.774;2023-10-19T04:15:24;5.00;;;4.10;;
12925;SDS011;6529;50.566;9.774;2023-10-19T04:17:51;4.60;;;4.20;;
12925;SDS011;6529;50.566;9.774;2023-10-19T04:20:23;4.40;;;4.00;;
12925;SDS011;6529;50.566;9.774;2023-10-19T04:23:00;4.60;;;4.13;;
12925;SDS011;6529;50.566;9.774;2023-10-19T04:25:35;5.47;;;4.50;;
12925;SDS011;6529;50.566;9.774;2023-10-19T04:28:01;5.87;;;4.63;;
12925;SDS011;6529;50.566;9.774;2023-10-19T04:30:26;4.80;;;4.40;;
12925;SDS011;6529;50.566;9.774;2023-10-19T04:32:52;5.37;;;4.80;;
12925;SDS011;6529;50.566;9.774;2023-10-19T04:35:18;5.23;;;4.40;;
12925;SDS011;6529;50.566;9.774;2023-10-19T04:37:50;5.97;;;5.10;;
12925;SDS011;6529;50.566;9.774;2023-10-19T04:40:20;5.13;;;4.63;;
12925;SDS011;6529;50.566;9.774;2023-10-19T04:42:47;6.57;;;4.83;;
12925;SDS011;6529;50.566;9.774;2023-10-19T04:45:15;6.20;;;5.40;;
12925;SDS011;6529;50.566;9.774;2023-10-19T04:47:41;6.40;;;5.20;;
12925;SDS011;6529;50.566;9.774;2023-10-19T04:50:07;5.67;;;5.07;;
12925;SDS011;6529;50.566;9.774;2023-10-19T04:52:35;6.60;;;5.70;;
12925;SDS011;6529;50.566;9.774;2023-10-19T04:55:01;7.50;;;6.00;;
12925;SDS011;6529;50.566;9.774;2023-10-19T04:57:27;6.53;;;5.93;;
12925;SDS011;6529;50.566;9.774;2023-10-19T04:59:53;7.57;;;6.37;;
12925;SDS011;6529;50.566;9.774;2023-10-19T05:02:18;8.17;;;6.53;;
12925;SDS011;6529;50.566;9.774;2023-10-19T05:04:44;7.30;;;6.33;;
12925;SDS011;6529;50.566;9.774;2023-10-19T05:07:12;7.07;;;6.37;;
12925;SDS011;6529;50.566;9.774;2023-10-19T05:09:41;7.60;;;6.17;;
12925;SDS011;6529;50.566;9.774;2023-10-19T05:12:07;7.63;;;6.67;;
12925;SDS011;6529;50.566;9.774;2023-10-19T05:14:37;7.60;;;6.80;;
12925;SDS011;6529;50.566;9.774;2023-10-19T05:17:04;8.37;;;7.10;;
12925;SDS011;6529;50.566;9.774;2023-10-19T05:19:33;9.07;;;7.13;;
12925;SDS011;6529;50.566;9.774;2023-10-19T05:22:00;8.37;;;7.40;;
12925;SDS011;6529;50.566;9.774;2023-10-19T05:24:27;9.57;;;7.30;;
12925;SDS011;6529;50.566;9.774;2023-10-19T05:26:53;9.43;;;7.47;;
12925;SDS011;6529;50.566;9.774;2023-10-19T05:29:19;10.73;;;8.37;;
12925;SDS011;6529;50.566;9.774;2023-10-19T05:31:45;10.13;;;8.13;;
12925;SDS011;6529;50.566;9.774;2023-10-19T05:34:11;11.10;;;8.80;;
12925;SDS011;6529;50.566;9.774;2023-10-19T05:36:36;12.33;;;8.83;;
12925;SDS011;6529;50.566;9.774;2023-10-19T05:39:02;12.40;;;8.87;;
12925;SDS011;6529;50.566;9.774;2023-10-19T05:41:33;14.37;;;8.40;;
12925;SDS011;6529;50.566;9.774;2023-10-19T05:43:59;10.80;;;8.60;;
12925;SDS011;6529;50.566;9.774;2023-10-19T05:46:25;11.37;;;8.53;;
12925;SDS011;6529;50.566;9.774;2023-10-19T05:48:50;11.90;;;8.63;;
12925;SDS011;6529;50.566;9.774;2023-10-19T05:51:19;10.77;;;8.60;;
12925;SDS011;6529;50.566;9.774;2023-10-19T05:53:44;11.07;;;8.50;;
12925;SDS011;6529;50.566;9.774;2023-10-19T05:56:10;10.33;;;8.27;;
12925;SDS011;6529;50.566;9.774;2023-10-19T05:58:36;10.87;;;8.97;;
12925;SDS011;6529;50.566;9.774;2023-10-19T06:01:02;12.07;;;8.70;;
12925;SDS011;6529;50.566;9.774;2023-10-19T06:03:27;12.40;;;8.80;;
12925;SDS011;6529;50.566;9.774;2023-10-19T06:05:53;13.43;;;9.70;;
12925;SDS011;6529;50.566;9.774;2023-10-19T06:08:21;11.83;;;9.03;;
12925;SDS011;6529;50.566;9.774;2023-10-19T06:10:53;12.60;;;9.00;;
12925;SDS011;6529;50.566;9.774;2023-10-19T06:13:19;14.93;;;9.67;;
12925;SDS011;6529;50.566;9.774;2023-10-19T06:15:47;13.23;;;9.27;;
12925;SDS011;6529;50.566;9.774;2023-10-19T06:18:13;12.63;;;9.23;;
12925;SDS011;6529;50.566;9.774;2023-10-19T06:20:42;11.13;;;8.80;;
12925;SDS011;6529;50.566;9.774;2023-10-19T06:23:09;12.37;;;9.30;;
12925;SDS011;6529;50.566;9.774;2023-10-19T06:25:36;14.80;;;8.80;;
12925;SDS011;6529;50.566;9.774;2023-10-19T06:28:02;13.00;;;9.20;;
12925;SDS011;6529;50.566;9.774;2023-10-19T06:30:29;13.07;;;8.93;;
12925;SDS011;6529;50.566;9.774;2023-10-19T06:32:55;11.93;;;9.40;;
12925;SDS011;6529;50.566;9.774;2023-10-19T06:35:24;13.93;;;9.10;;
12925;SDS011;6529;50.566;9.774;2023-10-19T06:37:50;13.40;;;9.10;;
12925;SDS011;6529;50.566;9.774;2023-10-19T06:40:17;11.03;;;8.50;;
12925;SDS011;6529;50.566;9.774;2023-10-19T06:42:43;12.47;;;8.73;;
12925;SDS011;6529;50.566;9.774;2023-10-19T06:45:13;12.53;;;8.80;;
12925;SDS011;6529;50.566;9.774;2023-10-19T06:47:42;10.93;;;8.70;;
12925;SDS011;6529;50.566;9.774;2023-10-19T06:50:10;12.87;;;8.97;;
12925;SDS011;6529;50.566;9.774;2023-10-19T06:52:39;10.67;;;8.50;;
12925;SDS011;6529;50.566;9.774;2023-10-19T06:55:06;10.37;;;8.40;;
12925;SDS011;6529;50.566;9.774;2023-10-19T06:57:38;11.40;;;8.53;;
12925;SDS011;6529;50.566;9.774;2023-10-19T07:02:42;10.33;;;8.17;;
12925;SDS011;6529;50.566;9.774;2023-10-19T07:05:09;10.40;;;7.87;;
12925;SDS011;6529;50.566;9.774;2023-10-19T07:07:39;8.43;;;7.10;;
12925;SDS011;6529;50.566;9.774;2023-10-19T07:10:06;8.47;;;7.00;;
12925;SDS011;6529;50.566;9.774;2023-10-19T07:12:33;8.77;;;7.03;;
12925;SDS011;6529;50.566;9.774;2023-10-19T07:14:59;9.60;;;7.40;;
12925;SDS011;6529;50.566;9.774;2023-10-19T07:17:26;9.57;;;7.10;;
12925;SDS011;6529;50.566;9.774;2023-10-19T07:19:52;8.43;;;6.93;;
12925;SDS011;6529;50.566;9.774;2023-10-19T07:22:18;9.53;;;7.03;;
12925;SDS011;6529;50.566;9.774;2023-10-19T07:24:47;10.30;;;7.33;;
12925;SDS011;6529;50.566;9.774;2023-10-19T07:27:13;8.67;;;6.93;;
12925;SDS011;6529;50.566;9.774;2023-10-19T07:29:43;9.57;;;7.10;;
12925;SDS011;6529;50.566;9.774;2023-10-19T07:32:13;9.17;;;7.10;;
12925;SDS011;6529;50.566;9.774;2023-10-19T07:34:39;9.77;;;6.97;;
12925;SDS011;6529;50.566;9.774;2023-10-19T07:37:05;8.93;;;6.60;;
12925;SDS011;6529;50.566;9.774;2023-10-19T07:39:32;7.93;;;6.60;;
12925;SDS011;6529;50.566;9.774;2023-10-19T07:41:59;9.07;;;6.67;;
12925;SDS011;6529;50.566;9.774;2023-10-19T07:44:24;10.33;;;7.00;;
12925;SDS011;6529;50.566;9.774;2023-10-19T07:46:50;8.47;;;6.67;;
12925;SDS011;6529;50.566;9.774;2023-10-19T07:49:17;9.17;;;6.90;;
12925;SDS011;6529;50.566;9.774;2023-10-19T07:51:46;8.93;;;6.87;;
12925;SDS011;6529;50.566;9.774;2023-10-19T07:54:12;8.10;;;6.47;;
12925;SDS011;6529;50.566;9.774;2023-10-19T07:56:38;9.40;;;6.40;;
12925;SDS011;6529;50.566;9.774;2023-10-19T07:59:04;8.67;;;6.20;;
12925;SDS011;6529;50.566;9.774;2023-10-19T08:01:30;8.03;;;5.83;;
12925;SDS011;6529;50.566;9.774;2023-10-19T08:03:56;6.83;;;5.70;;
12925;SDS011;6529;50.566;9.774;2023-10-19T08:06:22;8.10;;;5.60;;
12925;SDS011;6529;50.566;9.774;2023-10-19T08:08:47;7.73;;;5.73;;
12925;SDS011;6529;50.566;9.774;2023-10-19T08:11:13;6.27;;;5.10;;
12925;SDS011;6529;50.566;9.774;2023-10-19T08:13:39;7.13;;;5.23;;
12925;SDS011;6529;50.566;9.774;2023-10-19T08:16:05;7.60;;;5.43;;
12925;SDS011;6529;50.566;9.774;2023-10-19T08:18:32;6.10;;;5.23;;
12925;SDS011;6529;50.566;9.774;2023-10-19T08:21:00;7.47;;;5.57;;
12925;SDS011;6529;50.566;9.774;2023-10-19T08:23:26;6.43;;;5.07;;
12925;SDS011;6529;50.566;9.774;2023-10-19T08:25:52;7.47;;;5.20;;
12925;SDS011;6529;50.566;9.774;2023-10-19T08:28:18;6.83;;;4.70;;
12925;SDS011;6529;50.566;9.774;2023-10-19T08:30:45;6.73;;;4.90;;
12925;SDS011;6529;50.566;9.774;2023-10-19T08:33:21;6.57;;;4.67;;
12925;SDS011;6529;50.566;9.774;2023-10-19T08:35:48;5.77;;;4.43;;
12925;SDS011;6529;50.566;9.774;2023-10-19T08:38:14;5.10;;;4.27;;
12925;SDS011;6529;50.566;9.774;2023-10-19T08:40:40;7.83;;;4.60;;
12925;SDS011;6529;50.566;9.774;2023-10-19T08:43:05;5.10;;;4.37;;
12925;SDS011;6529;50.566;9.774;2023-10-19T08:45:32;7.10;;;4.20;;
12925;SDS011;6529;50.566;9.774;2023-10-19T08:48:00;5.30;;;4.30;;
12925;SDS011;6529;50.566;9.774;2023-10-19T08:50:27;6.73;;;4.60;;
12925;SDS011;6529;50.566;9.774;2023-10-19T08:52:55;6.70;;;4.70;;
12925;SDS011;6529;50.566;9.774;2023-10-19T08:55:22;6.13;;;4.30;;
12925;SDS011;6529;50.566;9.774;2023-10-19T08:57:48;7.67;;;4.20;;
12925;SDS011;6529;50.566;9.774;2023-10-19T09:00:15;6.47;;;4.33;;
12925;SDS011;6529;50.566;9.774;2023-10-19T09:02:44;6.83;;;4.13;;
12925;SDS011;6529;50.566;9.774;2023-10-19T09:05:10;6.37;;;4.87;;
12925;SDS011;6529;50.566;9.774;2023-10-19T09:07:50;7.10;;;4.33;;
12925;SDS011;6529;50.566;9.774;2023-10-19T09:10:26;6.77;;;4.90;;
12925;SDS011;6529;50.566;9.774;2023-10-19T09:12:59;6.37;;;4.30;;
12925;SDS011;6529;50.566;9.774;2023-10-19T09:15:27;6.10;;;4.17;;
12925;SDS011;6529;50.566;9.774;2023-10-19T09:17:55;5.73;;;4.40;;
12925;SDS011;6529;50.566;9.774;2023-10-19T09:20:21;4.53;;;3.87;;
12925;SDS011;6529;50.566;9.774;2023-10-19T09:22:53;5.07;;;3.73;;
12925;SDS011;6529;50.566;9.774;2023-10-19T09:25:20;5.20;;;4.20;;
12925;SDS011;6529;50.566;9.774;2023-10-19T09:27:46;4.30;;;3.50;;
12925;SDS011;6529;50.566;9.774;2023-10-19T09:30:12;6.60;;;3.90;;
12925;SDS011;6529;50.566;9.774;2023-10-19T09:32:43;5.97;;;4.07;;
12925;SDS011;6529;50.566;9.774;2023-10-19T09:35:12;5.73;;;4.20;;
12925;SDS011;6529;50.566;9.774;2023-10-19T09:37:40;5.93;;;4.23;;
12925;SDS011;6529;50.566;9.774;2023-10-19T09:40:07;4.40;;;3.93;;
12925;SDS011;6529;50.566;9.774;2023-10-19T09:42:38;5.43;;;4.03;;
12925;SDS011;6529;50.566;9.774;2023-10-19T09:45:13;6.07;;;4.40;;
12925;SDS011;6529;50.566;9.774;2023-10-19T09:47:46;5.50;;;4.43;;
12925;SDS011;6529;50.566;9.774;2023-10-19T09:50:15;5.70;;;4.20;;
12925;SDS011;6529;50.566;9.774;2023-10-19T09:52:41;5.60;;;3.77;;
12925;SDS011;6529;50.566;9.774;2023-10-19T09:55:12;4.80;;;3.90;;
12925;SDS011;6529;50.566;9.774;2023-10-19T09:57:52;7.30;;;4.50;;
12925;SDS011;6529;50.566;9.774;2023-10-19T10:00:24;5.50;;;3.90;;
12925;SDS011;6529;50.566;9.774;2023-10-19T10:02:53;4.63;;;3.70;;
12925;SDS011;6529;50.566;9.774;2023-10-19T10:10:46;4.20;;;3.50;;
12925;SDS011;6529;50.566;9.774;2023-10-19T10:15:53;3.67;;;3.03;;
12925;SDS011;6529;50.566;9.774;2023-10-19T10:18:20;5.87;;;3.50;;
12925;SDS011;6529;50.566;9.774;2023-10-19T10:20:57;3.50;;;3.20;;
12925;SDS011;6529;50.566;9.774;2023-10-19T10:23:39;4.93;;;3.53;;
12925;SDS011;6529;50.566;9.774;2023-10-19T10:26:10;4.97;;;3.60;;
12925;SDS011;6529;50.566;9.774;2023-10-19T10:28:37;4.83;;;3.50;;
12925;SDS011;6529;50.566;9.774;2023-10-19T10:31:21;5.63;;;3.80;;
12925;SDS011;6529;50.566;9.774;2023-10-19T10:33:51;8.50;;;4.53;;
12925;SDS011;6529;50.566;9.774;2023-10-19T10:36:19;4.97;;;4.17;;
12925;SDS011;6529;50.566;9.774;2023-10-19T10:38:46;8.30;;;4.63;;
12925;SDS011;6529;50.566;9.774;2023-10-19T10:41:23;5.00;;;3.80;;
12925;SDS011;6529;50.566;9.774;2023-10-19T10:43:53;4.77;;;3.80;;
12925;SDS011;6529;50.566;9.774;2023-10-19T10:46:26;4.77;;;4.20;;
12925;SDS011;6529;50.566;9.774;2023-10-19T10:48:54;5.83;;;4.30;;
12925;SDS011;6529;50.566;9.774;2023-10-19T10:51:23;6.93;;;4.43;;
12925;SDS011;6529;50.566;9.774;2023-10-19T10:53:53;5.70;;;4.37;;
12925;SDS011;6529;50.566;9.774;2023-10-19T10:56:20;6.30;;;4.70;;
12925;SDS011;6529;50.566;9.774;2023-10-19T10:58:47;6.43;;;4.30;;
12925;SDS011;6529;50.566;9.774;2023-10-19T11:01:13;6.20;;;4.20;;
12925;SDS011;6529;50.566;9.774;2023-10-19T11:03:40;7.23;;;4.77;;
12925;SDS011;6529;50.566;9.774;2023-10-19T11:06:06;6.90;;;4.27;;
12925;SDS011;6529;50.566;9.774;2023-10-19T11:08:33;6.17;;;4.17;;
12925;SDS011;6529;50.566;9.774;2023-10-19T11:11:08;6.73;;;4.80;;
12925;SDS011;6529;50.566;9.774;2023-10-19T11:13:38;5.93;;;4.23;;
12925;SDS011;6529;50.566;9.774;2023-10-19T11:16:05;5.27;;;4.07;;
12925;SDS011;6529;50.566;9.774;2023-10-19T11:18:35;5.23;;;4.17;;
12925;SDS011;6529;50.566;9.774;2023-10-19T11:21:02;6.90;;;4.50;;
12925;SDS011;6529;50.566;9.774;2023-10-19T11:23:45;5.40;;;4.00;;
12925;SDS011;6529;50.566;9.774;2023-10-19T11:26:12;6.17;;;3.60;;
12925;SDS011;6529;50.566;9.774;2023-10-19T11:28:40;4.00;;;3.40;;
12925;SDS011;6529;50.566;9.774;2023-10-19T11:33:45;5.00;;;3.00;;
12925;SDS011;6529;50.566;9.774;2023-10-19T11:36:13;6.20;;;3.00;;
12925;SDS011;6529;50.566;9.774;2023-10-19T11:38:43;6.33;;;3.53;;
12925;SDS011;6529;50.566;9.774;2023-10-19T11:41:13;4.43;;;3.30;;
12925;SDS011;6529;50.566;9.774;2023-10-19T11:43:40;3.50;;;2.80;;
12925;SDS011;6529;50.566;9.774;2023-10-19T11:46:07;4.73;;;3.23;;
12925;SDS011;6529;50.566;9.774;2023-10-19T11:48:34;4.27;;;3.10;;
12925;SDS011;6529;50.566;9.774;2023-10-19T11:51:04;4.57;;;2.90;;
12925;SDS011;6529;50.566;9.774;2023-10-19T11:53:31;5.53;;;3.50;;
12925;SDS011;6529;50.566;9.774;2023-10-19T11:55:58;4.60;;;3.50;;
12925;SDS011;6529;50.566;9.774;2023-10-19T11:58:29;4.60;;;2.90;;
12925;SDS011;6529;50.566;9.774;2023-10-19T12:00:55;4.90;;;3.10;;
12925;SDS011;6529;50.566;9.774;2023-10-19T12:03:21;5.00;;;2.90;;
12925;SDS011;6529;50.566;9.774;2023-10-19T12:05:46;4.37;;;2.90;;
12925;SDS011;6529;50.566;9.774;2023-10-19T12:08:12;3.13;;;2.40;;
12925;SDS011;6529;50.566;9.774;2023-10-19T12:10:37;3.80;;;2.60;;
12925;SDS011;6529;50.566;9.774;2023-10-19T12:13:06;3.20;;;2.67;;
12925;SDS011;6529;50.566;9.774;2023-10-19T12:15:33;4.57;;;2.77;;
12925;SDS011;6529;50.566;9.774;2023-10-19T12:17:59;3.30;;;3.00;;
12925;SDS011;6529;50.566;9.774;2023-10-19T12:20:25;4.77;;;3.07;;
12925;SDS011;6529;50.566;9.774;2023-10-19T12:22:51;4.40;;;3.30;;
12925;SDS011;6529;50.566;9.774;2023-10-19T12:25:19;4.03;;;2.90;;
12925;SDS011;6529;50.566;9.774;2023-10-19T12:28:00;5.13;;;3.17;;
12925;SDS011;6529;50.566;9.774;2023-10-19T12:30:25;3.87;;;2.87;;
12925;SDS011;6529;50.566;9.774;2023-10-19T12:32:56;5.97;;;3.40;;
12925;SDS011;6529;50.566;9.774;2023-10-19T12:35:25;5.00;;;3.37;;
12925;SDS011;6529;50.566;9.774;2023-10-19T12:37:55;4.80;;;3.20;;
12925;SDS011;6529;50.566;9.774;2023-10-19T12:40:20;5.07;;;3.63;;
12925;SDS011;6529;50.566;9.774;2023-10-19T12:42:53;5.83;;;3.40;;
12925;SDS011;6529;50.566;9.774;2023-10-19T12:45:22;4.50;;;3.43;;
12925;SDS011;6529;50.566;9.774;2023-10-19T12:47:51;3.43;;;3.13;;
12925;SDS011;6529;50.566;9.774;2023-10-19T12:50:20;4.90;;;3.60;;
12925;SDS011;6529;50.566;9.774;2023-10-19T12:52:50;5.93;;;3.80;;
12925;SDS011;6529;50.566;9.774;2023-10-19T12:55:16;4.03;;;3.70;;
12925;SDS011;6529;50.566;9.774;2023-10-19T12:57:42;4.60;;;3.97;;
12925;SDS011;6529;50.566;9.774;2023-10-19T13:00:08;5.37;;;3.83;;
12925;SDS011;6529;50.566;9.774;2023-10-19T13:02:51;6.47;;;3.80;;
12925;SDS011;6529;50.566;9.774;2023-10-19T13:05:26;4.47;;;3.80;;
12925;SDS011;6529;50.566;9.774;2023-10-19T13:07:54;6.00;;;3.83;;
12925;SDS011;6529;50.566;9.774;2023-10-19T13:10:23;6.47;;;3.80;;
12925;SDS011;6529;50.566;9.774;2023-10-19T13:12:53;6.87;;;4.17;;
12925;SDS011;6529;50.566;9.774;2023-10-19T13:15:19;4.67;;;4.13;;
12925;SDS011;6529;50.566;9.774;2023-10-19T13:17:47;6.97;;;4.03;;
12925;SDS011;6529;50.566;9.774;2023-10-19T13:20:13;6.07;;;4.00;;
12925;SDS011;6529;50.566;9.774;2023-10-19T13:22:43;5.97;;;3.90;;
12925;SDS011;6529;50.566;9.774;2023-10-19T13:25:09;5.60;;;3.43;;
12925;SDS011;6529;50.566;9.774;2023-10-19T13:27:38;5.00;;;4.10;;
12925;SDS011;6529;50.566;9.774;2023-10-19T13:30:06;4.80;;;4.00;;
12925;SDS011;6529;50.566;9.774;2023-10-19T13:32:35;4.60;;;4.07;;
12925;SDS011;6529;50.566;9.774;2023-10-19T13:35:01;6.17;;;4.00;;
12925;SDS011;6529;50.566;9.774;2023-10-19T13:37:27;4.17;;;3.77;;
12925;SDS011;6529;50.566;9.774;2023-10-19T13:39:53;4.07;;;3.50;;
12925;SDS011;6529;50.566;9.774;2023-10-19T13:42:19;4.20;;;3.63;;
12925;SDS011;6529;50.566;9.774;2023-10-19T13:44:46;5.37;;;3.87;;
12925;SDS011;6529;50.566;9.774;2023-10-19T13:47:12;5.30;;;3.60;;
12925;SDS011;6529;50.566;9.774;2023-10-19T13:49:38;5.27;;;3.73;;
12925;SDS011;6529;50.566;9.774;2023-10-19T13:52:04;5.13;;;3.90;;
12925;SDS011;6529;50.566;9.774;2023-10-19T13:54:29;4.30;;;3.87;;
12925;SDS011;6529;50.566;9.774;2023-10-19T13:56:55;4.63;;;3.50;;
12925;SDS011;6529;50.566;9.774;2023-10-19T13:59:21;5.57;;;3.70;;
12925;SDS011;6529;50.566;9.774;2023-10-19T14:01:48;5.27;;;3.80;;
12925;SDS011;6529;50.566;9.774;2023-10-19T14:04:15;5.63;;;3.80;;
12925;SDS011;6529;50.566;9.774;2023-10-19T14:06:41;4.77;;;4.17;;
12925;SDS011;6529;50.566;9.774;2023-10-19T14:09:08;4.67;;;3.93;;
12925;SDS011;6529;50.566;9.774;2023-10-19T14:11:37;4.93;;;4.13;;
12925;SDS011;6529;50.566;9.774;2023-10-19T14:14:03;4.43;;;4.03;;
12925;SDS011;6529;50.566;9.774;2023-10-19T14:16:29;6.27;;;4.50;;
12925;SDS011;6529;50.566;9.774;2023-10-19T14:18:56;6.43;;;4.20;;
12925;SDS011;6529;50.566;9.774;2023-10-19T14:21:21;7.23;;;4.20;;
12925;SDS011;6529;50.566;9.774;2023-10-19T14:23:51;4.93;;;4.40;;
12925;SDS011;6529;50.566;9.774;2023-10-19T14:26:19;5.90;;;4.40;;
12925;SDS011;6529;50.566;9.774;2023-10-19T14:28:44;5.90;;;4.23;;
12925;SDS011;6529;50.566;9.774;2023-10-19T14:31:10;6.17;;;4.40;;
12925;SDS011;6529;50.566;9.774;2023-10-19T14:33:37;6.57;;;4.47;;
12925;SDS011;6529;50.566;9.774;2023-10-19T14:36:05;5.17;;;4.23;;
12925;SDS011;6529;50.566;9.774;2023-10-19T14:38:32;5.53;;;4.70;;
12925;SDS011;6529;50.566;9.774;2023-10-19T14:40:58;5.57;;;4.90;;
12925;SDS011;6529;50.566;9.774;2023-10-19T14:43:24;7.07;;;4.97;;
12925;SDS011;6529;50.566;9.774;2023-10-19T14:45:54;6.83;;;4.90;;
12925;SDS011;6529;50.566;9.774;2023-10-19T14:48:22;7.03;;;5.17;;
12925;SDS011;6529;50.566;9.774;2023-10-19T14:50:48;6.67;;;5.27;;
12925;SDS011;6529;50.566;9.774;2023-10-19T14:53:16;6.40;;;4.93;;
12925;SDS011;6529;50.566;9.774;2023-10-19T14:55:43;6.93;;;5.90;;
12925;SDS011;6529;50.566;9.774;2023-10-19T14:58:11;8.37;;;6.73;;
12925;SDS011;6529;50.566;9.774;2023-10-19T15:00:36;6.53;;;5.37;;
12925;SDS011;6529;50.566;9.774;2023-10-19T15:03:07;7.07;;;5.90;;
12925;SDS011;6529;50.566;9.774;2023-10-19T15:05:33;8.43;;;6.07;;
12925;SDS011;6529;50.566;9.774;2023-10-19T15:08:03;6.60;;;5.67;;
12925;SDS011;6529;50.566;9.774;2023-10-19T15:10:30;9.97;;;7.67;;
12925;SDS011;6529;50.566;9.774;2023-10-19T15:12:56;7.77;;;6.33;;
12925;SDS011;6529;50.566;9.774;2023-10-19T15:15:26;8.23;;;6.67;;
12925;SDS011;6529;50.566;9.774;2023-10-19T15:17:53;8.10;;;6.30;;
12925;SDS011;6529;50.566;9.774;2023-10-19T15:20:19;8.97;;;6.87;;
12925;SDS011;6529;50.566;9.774;2023-10-19T15:22:47;9.93;;;7.37;;
12925;SDS011;6529;50.566;9.774;2023-10-19T15:25:13;9.67;;;7.00;;
12925;SDS011;6529;50.566;9.774;2023-10-19T15:27:43;7.07;;;6.03;;